sensor_id;sensor_type;location;lat;lon;timestamp;pressure;altitude;pressure_sealevel;temperature;humidity
11049;BME280;5577;42.706;23.160;2022-07-19T00:02:07;94741.69;;;15.60;100.00
11049;BME280;5577;42.706;23.160;2022-07-19T00:04:51;94783.28;;;15.90;100.00
11049;BME280;5577;42.706;23.160;2022-07-19T00:07:35;94781.06;;;15.96;100.00
11049;BME280;5577;42.706;23.160;2022-07-19T00:10:20;94786.34;;;15.92;100.00
11049;BME280;5577;42.706;23.160;2022-07-19T00:13:04;94779.41;;;15.88;100.00
11049;BME280;5577;42.706;23.160;2022-07-19T00:15:48;94786.25;;;15.85;100.00
11049;BME280;5577;42.706;23.160;2022-07-19T00:18:32;94793.41;;;15.78;100.00
11049;BME280;5577;42.706;23.160;2022-07-19T00:21:16;94786.56;;;15.80;100.00
11049;BME280;5577;42.706;23.160;2022-07-19T00:24:00;94786.84;;;15.72;100.00
11049;BME280;5577;42.706;23.160;2022-07-19T00:26:43;94785.69;;;15.73;100.00
11049;BME280;5577;42.706;23.160;2022-07-19T00:29:27;94784.25;;;15.79;100.00
11049;BME280;5577;42.706;23.160;2022-07-19T00:32:11;94779.72;;;15.79;100.00
11049;BME280;5577;42.706;23.160;2022-07-19T00:34:55;94795.72;;;15.79;100.00
11049;BME280;5577;42.706;23.160;2022-07-19T00:37:40;94757.38;;;15.65;100.00
11049;BME280;5577;42.706;23.160;2022-07-19T00:40:24;94775.47;;;15.78;100.00
11049;BME280;5577;42.706;23.160;2022-07-19T00:43:10;94784.56;;;15.74;100.00
11049;BME280;5577;42.706;23.160;2022-07-19T00:45:54;94775.38;;;15.71;100.00
11049;BME280;5577;42.706;23.160;2022-07-19T00:48:39;94779.53;;;15.65;100.00
11049;BME280;5577;42.706;23.160;2022-07-19T00:51:24;94779.88;;;15.64;100.00
11049;BME280;5577;42.706;23.160;2022-07-19T00:54:11;94787.03;;;15.60;100.00
11049;BME280;5577;42.706;23.160;2022-07-19T00:56:57;94772.94;;;15.59;100.00
11049;BME280;5577;42.706;23.160;2022-07-19T00:59:42;94778.91;;;15.49;100.00
11049;BME280;5577;42.706;23.160;2022-07-19T01:02:29;94775.06;;;15.47;100.00
11049;BME280;5577;42.706;23.160;2022-07-19T01:05:13;94770.00;;;15.38;100.00
11049;BME280;5577;42.706;23.160;2022-07-19T01:07:57;94776.56;;;15.44;100.00
11049;BME280;5577;42.706;23.160;2022-07-19T01:10:42;94777.16;;;15.34;100.00
11049;BME280;5577;42.706;23.160;2022-07-19T01:13:26;94780.78;;;15.23;100.00
11049;BME280;5577;42.706;23.160;2022-07-19T01:16:10;94780.69;;;15.16;100.00
11049;BME280;5577;42.706;23.160;2022-07-19T01:18:53;94778.72;;;15.13;100.00
11049;BME280;5577;42.706;23.160;2022-07-19T01:21:37;94780.31;;;15.17;100.00
11049;BME280;5577;42.706;23.160;2022-07-19T01:24:22;94784.41;;;15.11;100.00
11049;BME280;5577;42.706;23.160;2022-07-19T01:27:06;94779.53;;;15.17;100.00
11049;BME280;5577;42.706;23.160;2022-07-19T01:29:50;94766.56;;;15.15;100.00
11049;BME280;5577;42.706;23.160;2022-07-19T01:32:34;94771.78;;;15.08;100.00
11049;BME280;5577;42.706;23.160;2022-07-19T01:35:19;94777.94;;;15.12;100.00
11049;BME280;5577;42.706;23.160;2022-07-19T01:38:03;94728.09;;;14.90;100.00
11049;BME280;5577;42.706;23.160;2022-07-19T01:40:47;94775.03;;;15.21;100.00
11049;BME280;5577;42.706;23.160;2022-07-19T01:43:32;94765.44;;;15.16;100.00
11049;BME280;5577;42.706;23.160;2022-07-19T01:46:16;94763.84;;;15.12;100.00
11049;BME280;5577;42.706;23.160;2022-07-19T01:49:00;94765.09;;;15.18;100.00
11049;BME280;5577;42.706;23.160;2022-07-19T01:51:44;94771.50;;;15.13;100.00
11049;BME280;5577;42.706;23.160;2022-07-19T01:54:28;94761.66;;;15.17;100.00
11049;BME280;5577;42.706;23.160;2022-07-19T01:57:12;94765.50;;;15.20;100.00
11049;BME280;5577;42.706;23.160;2022-07-19T01:59:56;94766.97;;;15.17;100.00
11049;BME280;5577;42.706;23.160;2022-07-19T02:02:40;94770.38;;;15.14;100.00
11049;BME280;5577;42.706;23.160;2022-07-19T02:05:24;94766.16;;;15.13;100.00
11049;BME280;5577;42.706;23.160;2022-07-19T02:08:08;94769.94;;;15.12;100.00
11049;BME280;5577;42.706;23.160;2022-07-19T02:10:52;94772.56;;;15.09;100.00
11049;BME280;5577;42.706;23.160;2022-07-19T02:13:35;94776.72;;;15.06;100.00
11049;BME280;5577;42.706;23.160;2022-07-19T02:16:19;94772.81;;;15.00;100.00
11049;BME280;5577;42.706;23.160;2022-07-19T02:19:04;94778.22;;;15.04;100.00
11049;BME280;5577;42.706;23.160;2022-07-19T02:21:48;94737.78;;;14.76;100.00
11049;BME280;5577;42.706;23.160;2022-07-19T02:24:32;94777.00;;;15.01;100.00
11049;BME280;5577;42.706;23.160;2022-07-19T02:27:16;94773.53;;;14.97;100.00
11049;BME280;5577;42.706;23.160;2022-07-19T02:30:01;94779.22;;;14.96;100.00
11049;BME280;5577;42.706;23.160;2022-07-19T02:32:46;94779.63;;;14.98;100.00
11049;BME280;5577;42.706;23.160;2022-07-19T02:35:30;94777.25;;;14.93;100.00
11049;BME280;5577;42.706;23.160;2022-07-19T02:38:14;94786.63;;;14.83;100.00
11049;BME280;5577;42.706;23.160;2022-07-19T02:40:58;94788.91;;;14.81;100.00
11049;BME280;5577;42.706;23.160;2022-07-19T02:43:43;94792.72;;;14.84;100.00
11049;BME280;5577;42.706;23.160;2022-07-19T02:46:27;94738.03;;;14.45;100.00
11049;BME280;5577;42.706;23.160;2022-07-19T02:49:11;94800.63;;;14.77;100.00
11049;BME280;5577;42.706;23.160;2022-07-19T02:51:55;94793.31;;;14.74;100.00
11049;BME280;5577;42.706;23.160;2022-07-19T02:54:39;94793.75;;;14.76;100.00
11049;BME280;5577;42.706;23.160;2022-07-19T02:57:23;94796.41;;;14.76;100.00
11049;BME280;5577;42.706;23.160;2022-07-19T03:00:08;94796.03;;;14.77;100.00
11049;BME280;5577;42.706;23.160;2022-07-19T03:02:53;94805.16;;;14.76;100.00
11049;BME280;5577;42.706;23.160;2022-07-19T03:05:37;94787.41;;;14.61;100.00
11049;BME280;5577;42.706;23.160;2022-07-19T03:08:21;94821.09;;;14.73;100.00
11049;BME280;5577;42.706;23.160;2022-07-19T03:11:05;94807.84;;;14.76;100.00
11049;BME280;5577;42.706;23.160;2022-07-19T03:13:49;94814.22;;;14.72;100.00
11049;BME280;5577;42.706;23.160;2022-07-19T03:16:33;94809.97;;;14.67;100.00
11049;BME280;5577;42.706;23.160;2022-07-19T03:19:17;94806.19;;;14.68;100.00
11049;BME280;5577;42.706;23.160;2022-07-19T03:22:01;94808.53;;;14.73;100.00
11049;BME280;5577;42.706;23.160;2022-07-19T03:24:46;94812.34;;;14.72;100.00
11049;BME280;5577;42.706;23.160;2022-07-19T03:27:29;94810.03;;;14.71;100.00
11049;BME280;5577;42.706;23.160;2022-07-19T03:30:13;94811.28;;;14.77;100.00
11049;BME280;5577;42.706;23.160;2022-07-19T03:32:58;94812.09;;;14.81;100.00
11049;BME280;5577;42.706;23.160;2022-07-19T03:35:44;94821.63;;;14.82;100.00
11049;BME280;5577;42.706;23.160;2022-07-19T03:38:29;94822.94;;;14.91;100.00
11049;BME280;5577;42.706;23.160;2022-07-19T03:41:13;94831.00;;;14.95;100.00
11049;BME280;5577;42.706;23.160;2022-07-19T03:43:57;94826.59;;;15.06;100.00
11049;BME280;5577;42.706;23.160;2022-07-19T03:46:41;94821.94;;;14.99;100.00
11049;BME280;5577;42.706;23.160;2022-07-19T03:49:25;94813.22;;;15.02;100.00
11049;BME280;5577;42.706;23.160;2022-07-19T03:52:10;94832.75;;;15.10;100.00
11049;BME280;5577;42.706;23.160;2022-07-19T03:54:54;94827.97;;;15.19;100.00
11049;BME280;5577;42.706;23.160;2022-07-19T03:57:39;94832.28;;;15.27;100.00
11049;BME280;5577;42.706;23.160;2022-07-19T04:00:23;94839.41;;;15.42;100.00
11049;BME280;5577;42.706;23.160;2022-07-19T04:03:07;94841.53;;;15.55;100.00
11049;BME280;5577;42.706;23.160;2022-07-19T04:05:51;94841.72;;;15.69;100.00
11049;BME280;5577;42.706;23.160;2022-07-19T04:08:35;94842.63;;;15.80;100.00
11049;BME280;5577;42.706;23.160;2022-07-19T04:11:20;94825.91;;;15.83;100.00
11049;BME280;5577;42.706;23.160;2022-07-19T04:14:03;94844.50;;;16.06;100.00
11049;BME280;5577;42.706;23.160;2022-07-19T04:16:47;94840.88;;;16.21;100.00
11049;BME280;5577;42.706;23.160;2022-07-19T04:19:32;94842.19;;;16.34;100.00
11049;BME280;5577;42.706;23.160;2022-07-19T04:22:16;94837.78;;;16.48;100.00
11049;BME280;5577;42.706;23.160;2022-07-19T04:25:00;94834.88;;;16.60;100.00
11049;BME280;5577;42.706;23.160;2022-07-19T04:27:45;94822.69;;;16.66;100.00
11049;BME280;5577;42.706;23.160;2022-07-19T04:30:30;94838.50;;;16.82;100.00
11049;BME280;5577;42.706;23.160;2022-07-19T04:33:15;94832.19;;;16.97;100.00
11049;BME280;5577;42.706;23.160;2022-07-19T04:36:00;94834.59;;;17.12;100.00
11049;BME280;5577;42.706;23.160;2022-07-19T04:38:43;94834.75;;;17.34;100.00
11049;BME280;5577;42.706;23.160;2022-07-19T04:41:28;94834.09;;;17.44;100.00
11049;BME280;5577;42.706;23.160;2022-07-19T04:44:12;94825.34;;;17.47;100.00
11049;BME280;5577;42.706;23.160;2022-07-19T04:46:56;94845.31;;;17.60;100.00
11049;BME280;5577;42.706;23.160;2022-07-19T04:49:40;94835.41;;;17.64;100.00
11049;BME280;5577;42.706;23.160;2022-07-19T04:52:24;94844.59;;;17.63;100.00
11049;BME280;5577;42.706;23.160;2022-07-19T04:55:08;94837.72;;;17.69;100.00
11049;BME280;5577;42.706;23.160;2022-07-19T04:57:52;94845.84;;;17.79;100.00
11049;BME280;5577;42.706;23.160;2022-07-19T05:00:36;94837.91;;;18.00;100.00
11049;BME280;5577;42.706;23.160;2022-07-19T05:03:20;94828.81;;;18.12;100.00
11049;BME280;5577;42.706;23.160;2022-07-19T05:06:04;94838.78;;;18.18;100.00
11049;BME280;5577;42.706;23.160;2022-07-19T05:08:48;94834.22;;;18.29;100.00
11049;BME280;5577;42.706;23.160;2022-07-19T05:11:32;94827.34;;;18.28;100.00
11049;BME280;5577;42.706;23.160;2022-07-19T05:14:15;94838.50;;;18.37;100.00
11049;BME280;5577;42.706;23.160;2022-07-19T05:17:00;94838.50;;;18.44;100.00
11049;BME280;5577;42.706;23.160;2022-07-19T05:19:43;94842.75;;;18.45;100.00
11049;BME280;5577;42.706;23.160;2022-07-19T05:22:27;94839.69;;;18.50;100.00
11049;BME280;5577;42.706;23.160;2022-07-19T05:25:11;94839.38;;;18.69;100.00
11049;BME280;5577;42.706;23.160;2022-07-19T05:27:55;94835.16;;;18.75;100.00
11049;BME280;5577;42.706;23.160;2022-07-19T05:30:42;94837.88;;;18.89;100.00
11049;BME280;5577;42.706;23.160;2022-07-19T05:33:27;94837.13;;;18.89;100.00
11049;BME280;5577;42.706;23.160;2022-07-19T05:36:12;94810.66;;;18.77;100.00
11049;BME280;5577;42.706;23.160;2022-07-19T05:38:56;94842.91;;;19.12;100.00
11049;BME280;5577;42.706;23.160;2022-07-19T05:41:40;94848.28;;;19.15;100.00
11049;BME280;5577;42.706;23.160;2022-07-19T05:44:24;94841.78;;;19.34;100.00
11049;BME280;5577;42.706;23.160;2022-07-19T05:47:08;94844.09;;;19.42;100.00
11049;BME280;5577;42.706;23.160;2022-07-19T05:49:52;94837.19;;;19.59;100.00
11049;BME280;5577;42.706;23.160;2022-07-19T05:52:36;94842.56;;;19.66;100.00
11049;BME280;5577;42.706;23.160;2022-07-19T05:55:20;94835.25;;;19.77;100.00
11049;BME280;5577;42.706;23.160;2022-07-19T05:58:04;94836.78;;;19.89;100.00
11049;BME280;5577;42.706;23.160;2022-07-19T06:00:48;94842.16;;;19.82;100.00
11049;BME280;5577;42.706;23.160;2022-07-19T06:03:53;94842.13;;;19.92;100.00
11049;BME280;5577;42.706;23.160;2022-07-19T06:06:37;94837.91;;;19.88;100.00
11049;BME280;5577;42.706;23.160;2022-07-19T06:09:21;94837.88;;;19.95;100.00
11049;BME280;5577;42.706;23.160;2022-07-19T06:12:05;94842.50;;;20.15;100.00
11049;BME280;5577;42.706;23.160;2022-07-19T06:14:49;94834.78;;;20.21;100.00
11049;BME280;5577;42.706;23.160;2022-07-19T06:17:33;94839.38;;;20.27;100.00
11049;BME280;5577;42.706;23.160;2022-07-19T06:20:17;94837.44;;;20.31;100.00
11049;BME280;5577;42.706;23.160;2022-07-19T06:23:01;94830.81;;;20.46;100.00
11049;BME280;5577;42.706;23.160;2022-07-19T06:25:45;94840.38;;;20.58;100.00
11049;BME280;5577;42.706;23.160;2022-07-19T06:28:30;94832.31;;;20.58;100.00
11049;BME280;5577;42.706;23.160;2022-07-19T06:31:14;94827.25;;;20.70;100.00
11049;BME280;5577;42.706;23.160;2022-07-19T06:34:00;94832.25;;;20.75;100.00
11049;BME280;5577;42.706;23.160;2022-07-19T06:36:44;94743.03;;;20.12;100.00
11049;BME280;5577;42.706;23.160;2022-07-19T06:39:28;94834.50;;;20.80;100.00
11049;BME280;5577;42.706;23.160;2022-07-19T06:42:12;94831.00;;;20.94;100.00
11049;BME280;5577;42.706;23.160;2022-07-19T06:44:56;94829.06;;;20.94;100.00
11049;BME280;5577;42.706;23.160;2022-07-19T06:47:41;94827.84;;;21.06;100.00
11049;BME280;5577;42.706;23.160;2022-07-19T06:50:25;94830.06;;;21.21;100.00
11049;BME280;5577;42.706;23.160;2022-07-19T06:53:10;94820.69;;;21.36;100.00
11049;BME280;5577;42.706;23.160;2022-07-19T06:55:54;94819.19;;;21.32;100.00
11049;BME280;5577;42.706;23.160;2022-07-19T06:58:38;94798.97;;;21.10;100.00
11049;BME280;5577;42.706;23.160;2022-07-19T07:01:22;94823.34;;;21.43;100.00
11049;BME280;5577;42.706;23.160;2022-07-19T07:04:06;94821.28;;;21.58;100.00
11049;BME280;5577;42.706;23.160;2022-07-19T07:06:50;94824.66;;;21.69;100.00
11049;BME280;5577;42.706;23.160;2022-07-19T07:09:34;94820.28;;;21.85;100.00
11049;BME280;5577;42.706;23.160;2022-07-19T07:12:18;94823.34;;;21.87;100.00
11049;BME280;5577;42.706;23.160;2022-07-19T07:15:03;94824.09;;;21.88;100.00
11049;BME280;5577;42.706;23.160;2022-07-19T07:17:47;94830.13;;;22.02;100.00
11049;BME280;5577;42.706;23.160;2022-07-19T07:20:31;94824.59;;;22.16;100.00
11049;BME280;5577;42.706;23.160;2022-07-19T07:23:18;94824.06;;;22.28;100.00
11049;BME280;5577;42.706;23.160;2022-07-19T07:26:03;94817.09;;;22.31;100.00
11049;BME280;5577;42.706;23.160;2022-07-19T07:28:47;94820.84;;;22.40;100.00
11049;BME280;5577;42.706;23.160;2022-07-19T07:31:31;94818.19;;;22.37;91.50
11049;BME280;5577;42.706;23.160;2022-07-19T07:34:15;94819.94;;;22.54;94.62
11049;BME280;5577;42.706;23.160;2022-07-19T07:37:00;94819.44;;;22.63;92.37
11049;BME280;5577;42.706;23.160;2022-07-19T07:39:44;94822.66;;;22.81;94.29
11049;BME280;5577;42.706;23.160;2022-07-19T07:42:30;94818.47;;;23.03;90.19
11049;BME280;5577;42.706;23.160;2022-07-19T07:45:14;94815.66;;;23.13;87.69
11049;BME280;5577;42.706;23.160;2022-07-19T07:47:58;94817.94;;;23.15;78.99
11049;BME280;5577;42.706;23.160;2022-07-19T07:50:43;94813.97;;;23.23;79.14
11049;BME280;5577;42.706;23.160;2022-07-19T07:53:27;94821.19;;;23.29;79.63
11049;BME280;5577;42.706;23.160;2022-07-19T07:56:11;94814.31;;;23.51;79.89
11049;BME280;5577;42.706;23.160;2022-07-19T07:58:55;94807.84;;;23.68;72.48
11049;BME280;5577;42.706;23.160;2022-07-19T08:01:39;94800.88;;;23.67;68.82
11049;BME280;5577;42.706;23.160;2022-07-19T08:04:23;94807.47;;;23.66;65.64
11049;BME280;5577;42.706;23.160;2022-07-19T08:07:07;94817.41;;;23.73;63.23
11049;BME280;5577;42.706;23.160;2022-07-19T08:09:51;94808.88;;;23.74;60.07
11049;BME280;5577;42.706;23.160;2022-07-19T08:12:35;94815.59;;;23.66;59.59
11049;BME280;5577;42.706;23.160;2022-07-19T08:15:20;94812.88;;;23.66;56.71
11049;BME280;5577;42.706;23.160;2022-07-19T08:18:04;94811.69;;;23.67;55.98
11049;BME280;5577;42.706;23.160;2022-07-19T08:20:48;94805.09;;;23.91;55.31
11049;BME280;5577;42.706;23.160;2022-07-19T08:23:32;94798.09;;;24.17;57.66
11049;BME280;5577;42.706;23.160;2022-07-19T08:26:16;94791.56;;;24.14;53.90
11049;BME280;5577;42.706;23.160;2022-07-19T08:29:00;94810.50;;;24.14;53.73
11049;BME280;5577;42.706;23.160;2022-07-19T08:31:44;94801.75;;;24.26;53.83
11049;BME280;5577;42.706;23.160;2022-07-19T08:34:28;94799.69;;;24.53;53.53
11049;BME280;5577;42.706;23.160;2022-07-19T08:37:12;94796.81;;;24.60;52.28
11049;BME280;5577;42.706;23.160;2022-07-19T08:39:56;94800.00;;;24.55;50.99
11049;BME280;5577;42.706;23.160;2022-07-19T08:42:40;94796.81;;;24.60;51.19
11049;BME280;5577;42.706;23.160;2022-07-19T08:45:25;94794.63;;;24.91;52.25
11049;BME280;5577;42.706;23.160;2022-07-19T08:48:09;94800.72;;;24.79;51.31
11049;BME280;5577;42.706;23.160;2022-07-19T08:50:53;94795.47;;;24.88;51.11
11049;BME280;5577;42.706;23.160;2022-07-19T08:53:38;94786.16;;;24.89;49.26
11049;BME280;5577;42.706;23.160;2022-07-19T08:56:24;94784.06;;;24.96;49.77
11049;BME280;5577;42.706;23.160;2022-07-19T08:59:27;94783.56;;;25.02;50.47
11049;BME280;5577;42.706;23.160;2022-07-19T09:02:10;94790.25;;;25.13;49.49
11049;BME280;5577;42.706;23.160;2022-07-19T09:05:09;94782.69;;;24.88;48.40
11049;BME280;5577;42.706;23.160;2022-07-19T09:10:48;94785.19;;;25.15;47.61
11049;BME280;5577;42.706;23.160;2022-07-19T09:13:51;94768.78;;;25.38;47.17
11049;BME280;5577;42.706;23.160;2022-07-19T09:19:41;94773.72;;;25.88;48.38
11049;BME280;5577;42.706;23.160;2022-07-19T09:22:25;94777.56;;;25.74;45.90
11049;BME280;5577;42.706;23.160;2022-07-19T09:25:09;94763.44;;;25.51;45.39
11049;BME280;5577;42.706;23.160;2022-07-19T09:27:57;94755.31;;;25.51;47.22
11049;BME280;5577;42.706;23.160;2022-07-19T09:30:44;94771.00;;;25.88;46.82
11049;BME280;5577;42.706;23.160;2022-07-19T09:33:30;94773.47;;;25.82;46.87
11049;BME280;5577;42.706;23.160;2022-07-19T09:36:15;94741.59;;;25.58;45.43
11049;BME280;5577;42.706;23.160;2022-07-19T09:38:59;94773.00;;;25.71;45.71
11049;BME280;5577;42.706;23.160;2022-07-19T09:41:55;94769.69;;;25.80;46.55
11049;BME280;5577;42.706;23.160;2022-07-19T09:44:40;94762.78;;;26.20;46.31
11049;BME280;5577;42.706;23.160;2022-07-19T09:47:36;94757.38;;;26.20;45.34
11049;BME280;5577;42.706;23.160;2022-07-19T09:50:20;94755.16;;;26.02;44.43
11049;BME280;5577;42.706;23.160;2022-07-19T09:53:05;94760.75;;;26.24;45.93
11049;BME280;5577;42.706;23.160;2022-07-19T09:55:50;94759.78;;;26.30;44.35
11049;BME280;5577;42.706;23.160;2022-07-19T09:58:35;94758.53;;;26.06;43.85
11049;BME280;5577;42.706;23.160;2022-07-19T10:01:19;94754.06;;;25.84;45.65
11049;BME280;5577;42.706;23.160;2022-07-19T10:04:12;94759.34;;;26.19;46.64
11049;BME280;5577;42.706;23.160;2022-07-19T10:06:56;94747.31;;;26.04;44.47
11049;BME280;5577;42.706;23.160;2022-07-19T10:09:41;94740.75;;;25.73;44.86
11049;BME280;5577;42.706;23.160;2022-07-19T10:12:25;94752.00;;;26.04;45.73
11049;BME280;5577;42.706;23.160;2022-07-19T10:15:12;94747.94;;;26.24;45.24
11049;BME280;5577;42.706;23.160;2022-07-19T10:18:11;94746.31;;;26.68;45.53
11049;BME280;5577;42.706;23.160;2022-07-19T10:20:55;94749.38;;;26.95;43.86
11049;BME280;5577;42.706;23.160;2022-07-19T10:23:50;94743.91;;;27.45;44.54
11049;BME280;5577;42.706;23.160;2022-07-19T10:26:35;94729.44;;;27.48;44.69
11049;BME280;5577;42.706;23.160;2022-07-19T10:29:22;94739.78;;;27.03;44.47
11049;BME280;5577;42.706;23.160;2022-07-19T10:32:09;94730.88;;;26.77;44.59
11049;BME280;5577;42.706;23.160;2022-07-19T10:35:20;94734.22;;;27.06;43.80
11049;BME280;5577;42.706;23.160;2022-07-19T10:40:53;94735.31;;;27.21;42.94
11049;BME280;5577;42.706;23.160;2022-07-19T10:44:08;94732.84;;;27.27;42.29
11049;BME280;5577;42.706;23.160;2022-07-19T10:46:56;94726.69;;;27.82;42.63
11049;BME280;5577;42.706;23.160;2022-07-19T10:49:41;94686.72;;;27.23;41.96
11049;BME280;5577;42.706;23.160;2022-07-19T10:58:10;94726.09;;;26.94;43.31
11049;BME280;5577;42.706;23.160;2022-07-19T11:00:54;94720.56;;;26.60;43.80
11049;BME280;5577;42.706;23.160;2022-07-19T11:03:43;94718.06;;;26.24;43.54
11049;BME280;5577;42.706;23.160;2022-07-19T11:06:27;94715.88;;;26.60;43.97
11049;BME280;5577;42.706;23.160;2022-07-19T11:09:11;94716.09;;;27.28;43.46
11049;BME280;5577;42.706;23.160;2022-07-19T11:11:55;94716.41;;;27.30;43.30
11049;BME280;5577;42.706;23.160;2022-07-19T11:14:43;94706.88;;;26.76;42.67
11049;BME280;5577;42.706;23.160;2022-07-19T11:17:28;94709.75;;;26.44;43.66
11049;BME280;5577;42.706;23.160;2022-07-19T11:20:12;94681.78;;;26.06;45.25
11049;BME280;5577;42.706;23.160;2022-07-19T11:23:00;94675.66;;;26.43;43.15
11049;BME280;5577;42.706;23.160;2022-07-19T11:25:45;94695.56;;;26.90;42.04
11049;BME280;5577;42.706;23.160;2022-07-19T11:28:31;94694.53;;;26.59;41.99
11049;BME280;5577;42.706;23.160;2022-07-19T11:31:19;94660.13;;;25.90;43.30
11049;BME280;5577;42.706;23.160;2022-07-19T11:34:11;94698.09;;;26.31;43.79
11049;BME280;5577;42.706;23.160;2022-07-19T11:36:58;94701.44;;;25.81;44.12
11049;BME280;5577;42.706;23.160;2022-07-19T11:39:49;94671.88;;;25.26;45.33
11049;BME280;5577;42.706;23.160;2022-07-19T11:42:35;94701.16;;;25.63;44.58
11049;BME280;5577;42.706;23.160;2022-07-19T11:45:22;94692.25;;;26.32;46.36
11049;BME280;5577;42.706;23.160;2022-07-19T11:48:07;94688.81;;;27.07;43.17
11049;BME280;5577;42.706;23.160;2022-07-19T11:51:08;94680.69;;;27.75;42.56
11049;BME280;5577;42.706;23.160;2022-07-19T11:53:54;94692.44;;;27.85;41.00
11049;BME280;5577;42.706;23.160;2022-07-19T11:56:38;94696.44;;;28.14;40.28
11049;BME280;5577;42.706;23.160;2022-07-19T11:59:22;94683.88;;;27.95;38.02
11049;BME280;5577;42.706;23.160;2022-07-19T12:02:06;94681.25;;;27.70;38.79
11049;BME280;5577;42.706;23.160;2022-07-19T12:04:50;94687.59;;;26.95;39.97
11049;BME280;5577;42.706;23.160;2022-07-19T12:07:34;94672.72;;;26.25;41.63
11049;BME280;5577;42.706;23.160;2022-07-19T12:10:34;94682.53;;;26.72;42.48
11049;BME280;5577;42.706;23.160;2022-07-19T12:13:30;94670.22;;;26.55;42.55
11049;BME280;5577;42.706;23.160;2022-07-19T12:16:15;94681.59;;;26.38;42.38
11049;BME280;5577;42.706;23.160;2022-07-19T12:18:59;94662.84;;;26.93;41.50
11049;BME280;5577;42.706;23.160;2022-07-19T12:21:43;94678.28;;;27.43;42.39
11049;BME280;5577;42.706;23.160;2022-07-19T12:24:29;94673.25;;;27.88;38.46
11049;BME280;5577;42.706;23.160;2022-07-19T12:27:15;94674.63;;;28.66;38.84
11049;BME280;5577;42.706;23.160;2022-07-19T12:30:00;94663.50;;;29.58;37.69
11049;BME280;5577;42.706;23.160;2022-07-19T12:32:47;94664.75;;;29.66;37.32
11049;BME280;5577;42.706;23.160;2022-07-19T12:35:40;94656.56;;;27.99;37.79
11049;BME280;5577;42.706;23.160;2022-07-19T12:38:33;94645.44;;;28.15;38.10
11049;BME280;5577;42.706;23.160;2022-07-19T12:41:17;94655.16;;;28.77;37.55
11049;BME280;5577;42.706;23.160;2022-07-19T12:44:01;94673.41;;;27.85;37.98
11049;BME280;5577;42.706;23.160;2022-07-19T12:46:45;94658.09;;;27.66;38.63
11049;BME280;5577;42.706;23.160;2022-07-19T12:49:46;94654.75;;;27.83;39.06
11049;BME280;5577;42.706;23.160;2022-07-19T12:52:31;94618.13;;;27.97;38.42
11049;BME280;5577;42.706;23.160;2022-07-19T12:55:14;94652.28;;;27.98;38.59
11049;BME280;5577;42.706;23.160;2022-07-19T12:57:59;94646.59;;;27.83;38.47
11049;BME280;5577;42.706;23.160;2022-07-19T13:00:43;94650.63;;;27.79;39.51
11049;BME280;5577;42.706;23.160;2022-07-19T13:03:28;94648.44;;;28.08;37.12
11049;BME280;5577;42.706;23.160;2022-07-19T13:06:13;94634.97;;;28.35;37.61
11049;BME280;5577;42.706;23.160;2022-07-19T13:08:56;94633.13;;;28.62;37.48
11049;BME280;5577;42.706;23.160;2022-07-19T13:11:41;94641.34;;;28.10;35.27
11049;BME280;5577;42.706;23.160;2022-07-19T13:14:24;94638.31;;;28.08;36.68
11049;BME280;5577;42.706;23.160;2022-07-19T13:17:09;94633.66;;;28.18;36.14
11049;BME280;5577;42.706;23.160;2022-07-19T13:19:56;94630.72;;;28.34;36.94
11049;BME280;5577;42.706;23.160;2022-07-19T13:22:41;94630.84;;;28.30;36.98
11049;BME280;5577;42.706;23.160;2022-07-19T13:25:25;94617.13;;;28.43;37.17
11049;BME280;5577;42.706;23.160;2022-07-19T13:28:09;94616.53;;;28.39;36.14
11049;BME280;5577;42.706;23.160;2022-07-19T13:30:53;94627.38;;;28.30;35.88
11049;BME280;5577;42.706;23.160;2022-07-19T13:33:37;94628.25;;;27.75;36.66
11049;BME280;5577;42.706;23.160;2022-07-19T13:36:21;94593.50;;;27.35;36.05
11049;BME280;5577;42.706;23.160;2022-07-19T13:39:06;94618.91;;;27.41;37.55
11049;BME280;5577;42.706;23.160;2022-07-19T13:41:51;94630.47;;;27.33;38.19
11049;BME280;5577;42.706;23.160;2022-07-19T13:44:36;94620.16;;;27.62;39.05
11049;BME280;5577;42.706;23.160;2022-07-19T13:47:20;94614.63;;;27.96;37.06
11049;BME280;5577;42.706;23.160;2022-07-19T13:50:04;94623.09;;;27.77;36.21
11049;BME280;5577;42.706;23.160;2022-07-19T13:52:49;94609.13;;;27.44;36.44
11049;BME280;5577;42.706;23.160;2022-07-19T13:55:33;94616.00;;;27.36;36.61
11049;BME280;5577;42.706;23.160;2022-07-19T13:58:17;94618.59;;;27.61;36.48
11049;BME280;5577;42.706;23.160;2022-07-19T14:01:01;94610.25;;;27.77;36.53
11049;BME280;5577;42.706;23.160;2022-07-19T14:03:46;94567.31;;;27.94;35.80
11049;BME280;5577;42.706;23.160;2022-07-19T14:06:33;94607.50;;;28.20;37.40
11049;BME280;5577;42.706;23.160;2022-07-19T14:09:17;94612.69;;;27.97;36.45
11049;BME280;5577;42.706;23.160;2022-07-19T14:12:01;94604.00;;;27.68;36.63
11049;BME280;5577;42.706;23.160;2022-07-19T14:14:46;94611.34;;;27.58;37.09
11049;BME280;5577;42.706;23.160;2022-07-19T14:17:30;94602.09;;;27.55;37.91
11049;BME280;5577;42.706;23.160;2022-07-19T14:20:14;94603.06;;;27.62;36.64
11049;BME280;5577;42.706;23.160;2022-07-19T14:22:58;94606.97;;;27.61;37.36
11049;BME280;5577;42.706;23.160;2022-07-19T14:25:42;94608.25;;;27.69;36.58
11049;BME280;5577;42.706;23.160;2022-07-19T14:28:26;94593.63;;;27.53;36.03
11049;BME280;5577;42.706;23.160;2022-07-19T14:31:10;94600.31;;;27.40;36.90
11049;BME280;5577;42.706;23.160;2022-07-19T14:33:59;94607.56;;;27.21;37.04
11049;BME280;5577;42.706;23.160;2022-07-19T14:36:43;94603.66;;;27.22;36.80
11049;BME280;5577;42.706;23.160;2022-07-19T14:39:28;94597.56;;;27.18;37.24
11049;BME280;5577;42.706;23.160;2022-07-19T14:42:12;94597.00;;;27.23;38.91
11049;BME280;5577;42.706;23.160;2022-07-19T14:44:57;94604.94;;;27.18;37.00